createdAt,value
2022-11-05T00:01:37.102Z,-28.4
2022-11-05T00:03:38.060Z,-28.4
2022-11-05T00:09:42.090Z,-28.2
2022-11-05T00:11:43.635Z,-28.3
2022-11-05T00:13:45.093Z,-28.4
2022-11-05T00:15:46.435Z,-28.4
2022-11-05T00:17:48.260Z,-28.2
2022-11-05T00:19:49.222Z,-28.3
2022-11-05T00:21:50.894Z,-28.4
2022-11-05T00:23:52.239Z,-28.3
2022-11-05T00:25:53.232Z,-28.4
2022-11-05T00:27:54.912Z,-28.5
2022-11-05T00:29:56.271Z,-28.4
2022-11-05T00:31:58.148Z,-28.4
2022-11-05T00:34:00.066Z,-28.3
2022-11-05T00:36:01.533Z,-28.5
2022-11-05T00:38:02.709Z,-28.2
2022-11-05T00:40:03.849Z,-28.4
2022-11-05T00:42:04.940Z,-28.3
2022-11-05T00:44:06.451Z,-28.3
2022-11-05T00:46:07.632Z,-28.3
2022-11-05T00:48:08.764Z,-28.2
2022-11-05T00:50:09.724Z,-28.6
2022-11-05T00:52:10.782Z,-28.3
2022-11-05T00:54:12.552Z,-28.5
2022-11-05T00:56:14.003Z,-28.4
2022-11-05T00:58:15.519Z,-28.4
2022-11-05T01:00:16.981Z,-28.5
2022-11-05T01:02:18.305Z,-28.2
2022-11-05T01:08:22.448Z,-28.2
2022-11-05T01:10:24.073Z,-28.5
2022-11-05T01:12:25.842Z,-28.2
2022-11-05T01:14:27.554Z,-28.4
2022-11-05T01:16:28.648Z,-28.2
2022-11-05T01:18:30.202Z,-28.4
2022-11-05T01:22:33.103Z,-28.4
2022-11-05T01:24:34.496Z,-28.2
2022-11-05T01:28:38.064Z,-28.2
2022-11-05T01:32:41.377Z,-28.4
2022-11-05T01:34:42.581Z,-28.2
2022-11-05T01:36:44.159Z,-28.4
2022-11-05T01:38:45.261Z,-28.4
2022-11-05T01:40:46.999Z,-28.2
2022-11-05T01:42:48.010Z,-28.2
2022-11-05T01:44:49.157Z,-28.4
2022-11-05T01:48:52.611Z,-28.2
2022-11-05T01:50:54.191Z,-28.2
2022-11-05T01:52:55.831Z,-28.5
2022-11-05T01:54:57.609Z,-28.2
2022-11-05T01:56:59.256Z,-28.4
2022-11-05T01:59:00.206Z,-28.5
2022-11-05T02:01:45.496Z,-28.2
2022-11-05T02:03:46.784Z,-28.3
2022-11-05T02:05:48.213Z,-28.4
2022-11-05T02:07:49.830Z,-28.1
2022-11-05T02:11:52.627Z,-28.4
2022-11-05T02:13:53.899Z,-28.4
2022-11-05T02:15:55.292Z,-28.2
2022-11-05T02:17:56.676Z,-28.3
2022-11-05T02:19:58.396Z,-28.6
2022-11-05T02:21:59.709Z,-28.4
2022-11-05T02:28:03.355Z,-28.3
2022-11-05T02:30:04.392Z,-28.1
2022-11-05T02:32:06.299Z,-28.3
2022-11-05T02:34:08.061Z,-28.5
2022-11-05T02:36:09.793Z,-28.3
2022-11-05T02:38:11.078Z,-28.4
2022-11-05T02:40:12.103Z,-28.4
2022-11-05T02:42:13.827Z,-28.3
2022-11-05T02:44:14.938Z,-28.5
2022-11-05T02:46:16.267Z,-28.4
2022-11-05T02:48:17.423Z,-28.3
2022-11-05T02:50:18.912Z,-28.5
2022-11-05T02:52:19.927Z,-28.1
2022-11-05T02:54:21.041Z,-28.2
2022-11-05T02:56:22.752Z,-28.2
2022-11-05T02:58:24.545Z,-28.3
2022-11-05T03:00:26.377Z,-28.4
2022-11-05T03:04:28.837Z,-28.2
2022-11-05T03:06:30.419Z,-28.5
2022-11-05T03:08:32.284Z,-28.3
2022-11-05T03:10:33.693Z,-28.4
2022-11-05T03:12:34.722Z,-28.4
2022-11-05T03:14:36.187Z,-28.4
2022-11-05T03:16:37.552Z,-28.4
2022-11-05T03:18:38.795Z,-28.5
2022-11-05T03:20:39.894Z,-28.3
2022-11-05T03:24:42.445Z,-28.5
2022-11-05T03:26:44.050Z,-28.3
2022-11-05T03:28:45.095Z,-28.3
2022-11-05T03:30:46.915Z,-28.5
2022-11-05T03:32:48.519Z,-28.4
2022-11-05T03:34:49.756Z,-28.4
2022-11-05T03:36:50.947Z,-28.5
2022-11-05T03:40:53.927Z,-28.2
2022-11-05T03:42:54.918Z,-28.3
2022-11-05T03:44:56.509Z,-28.3
2022-11-05T03:46:57.742Z,-28.3
2022-11-05T03:53:02.505Z,-28.3
2022-11-05T03:55:03.544Z,-28.3
2022-11-05T03:57:05.320Z,-28.5
2022-11-05T03:59:06.339Z,-28.4
2022-11-05T04:01:08.026Z,-27.9
2022-11-05T04:03:09.540Z,-28.4
2022-11-05T04:07:11.777Z,-28.4
2022-11-05T04:09:13.548Z,-28.5
2022-11-05T04:11:15.132Z,-28.3
2022-11-05T04:13:16.891Z,-28.4
2022-11-05T04:15:18.229Z,-28.6
2022-11-05T04:17:19.378Z,-28.4
2022-11-05T04:19:25.213Z,-28.5
2022-11-05T04:21:22.512Z,-28.1
2022-11-05T04:23:24.394Z,-28.3
2022-11-05T04:25:25.991Z,-28.3
2022-11-05T04:27:27.623Z,-28.3
2022-11-05T04:29:29.281Z,-28.1
2022-11-05T04:31:30.617Z,-28.2
2022-11-05T04:35:33.015Z,-28.2
2022-11-05T04:39:35.628Z,-28.5
2022-11-05T04:41:37.587Z,-28.3
2022-11-05T04:43:39.179Z,-28.5
2022-11-05T04:45:40.478Z,-28.4
2022-11-05T04:51:44.726Z,-28.5
2022-11-05T04:53:46.234Z,-28.5
2022-11-05T04:55:47.698Z,-28
2022-11-05T04:57:48.759Z,-28.4
2022-11-05T04:59:50.097Z,-27.9
2022-11-05T05:01:51.145Z,-28.3
2022-11-05T05:03:52.788Z,-28.5
2022-11-05T05:05:54.207Z,-28.1
2022-11-05T05:07:55.467Z,-28.2
2022-11-05T05:09:57.015Z,-28.5
2022-11-05T05:11:58.812Z,-28.3
2022-11-05T05:13:59.987Z,-28.5
2022-11-05T05:16:01.331Z,-28.2
2022-11-05T05:18:02.557Z,-28.2
2022-11-05T05:20:04.334Z,-28.2
2022-11-05T05:22:05.359Z,-28
2022-11-05T05:24:07.222Z,-28.4
2022-11-05T05:26:08.910Z,-28.2
2022-11-05T05:28:09.976Z,-28.3
2022-11-05T05:30:11.115Z,-28.4
2022-11-05T05:32:12.178Z,-28.5
2022-11-05T05:34:13.865Z,-28.5
2022-11-05T05:36:14.865Z,-28
2022-11-05T05:38:16.472Z,-28.3
2022-11-05T05:40:18.309Z,-28
2022-11-05T05:42:19.289Z,-28.3
2022-11-05T05:44:20.516Z,-28.4
2022-11-05T05:50:23.749Z,-28.4
2022-11-05T05:52:25.009Z,-28.6
2022-11-05T05:54:30.824Z,-28.3
2022-11-05T05:56:27.196Z,-28.4
2022-11-05T05:58:28.359Z,-28.2
2022-11-05T06:00:30.076Z,-28.4
2022-11-05T06:04:32.493Z,-28.3
2022-11-05T06:06:34.073Z,-28.4
2022-11-05T06:08:35.548Z,-28.4
2022-11-05T06:10:36.675Z,-28.3
2022-11-05T06:16:40.524Z,-28.5
2022-11-05T06:18:41.939Z,-28.3
2022-11-05T06:20:42.967Z,-28.4
2022-11-05T06:22:44.227Z,-28.3
2022-11-05T06:24:45.168Z,-28.3
2022-11-05T06:26:46.234Z,-28.4
2022-11-05T06:28:47.945Z,-28.4
2022-11-05T06:30:49.404Z,-28.4
2022-11-05T06:32:51.001Z,-28.5
2022-11-05T06:34:52.059Z,-28.3
2022-11-05T06:36:53.250Z,-28.3
2022-11-05T06:38:54.460Z,-28.4
2022-11-05T06:40:55.737Z,-28.5
2022-11-05T06:42:56.842Z,-28.3
2022-11-05T06:44:58.105Z,-28.4
2022-11-05T06:46:59.401Z,-28.4
2022-11-05T06:49:00.513Z,-28.5
2022-11-05T06:51:02.174Z,-28.2
2022-11-05T06:53:03.820Z,-28
2022-11-05T06:55:05.694Z,-28.4
2022-11-05T06:57:06.931Z,-28.3
2022-11-05T06:59:08.433Z,-28.4
2022-11-05T07:01:09.603Z,-28.4
2022-11-05T07:03:11.546Z,-28.2
2022-11-05T07:05:12.899Z,-28.3
2022-11-05T07:07:14.408Z,-28.2
2022-11-05T07:09:15.780Z,-28.5
2022-11-05T07:11:17.550Z,-28.2
2022-11-05T07:15:20.066Z,-28.2
2022-11-05T07:17:21.814Z,-28.3
2022-11-05T07:19:23.501Z,-28.3
2022-11-05T07:21:24.748Z,-28.3
2022-11-05T07:23:26.368Z,-28.3
2022-11-05T07:25:27.495Z,-28.3
2022-11-05T07:31:31.873Z,-28
2022-11-05T07:33:36.431Z,-28.5
2022-11-05T07:35:35.389Z,-28.4
2022-11-05T07:37:36.978Z,-28.6
2022-11-05T07:39:38.046Z,-28.4
2022-11-05T07:41:39.318Z,-28.3
2022-11-05T07:43:41.234Z,-28.3
2022-11-05T07:45:42.827Z,-28.3
2022-11-05T07:47:44.311Z,-28.6
2022-11-05T07:49:45.480Z,-28.4
2022-11-05T07:51:46.830Z,-28.2
2022-11-05T07:53:48.153Z,-28.3
2022-11-05T07:55:49.078Z,-28.4
2022-11-05T07:57:50.352Z,-28.3
2022-11-05T07:59:52.168Z,-27.4
2022-11-05T08:01:53.752Z,-27.4
2022-11-05T08:03:54.627Z,-26.5
2022-11-05T08:05:55.917Z,-26.3
2022-11-05T08:07:57.376Z,-26
2022-11-05T08:09:58.701Z,-26.3
2022-11-05T08:12:02.993Z,-27.4
2022-11-05T08:14:01.248Z,-28
2022-11-05T08:16:02.702Z,-28.4
2022-11-05T08:18:03.729Z,-28.4
2022-11-05T08:20:04.761Z,-28.2
2022-11-05T08:24:07.228Z,-28.2
2022-11-05T08:26:08.266Z,-28.2
2022-11-05T08:28:09.925Z,-28.3
2022-11-05T08:30:11.566Z,-28.4
2022-11-05T08:32:12.766Z,-28.3
2022-11-05T08:34:14.616Z,-28.3
2022-11-05T08:36:15.962Z,-28.4
2022-11-05T08:38:17.194Z,-28.3
2022-11-05T08:40:18.454Z,-28
2022-11-05T08:42:27.650Z,-28.2
2022-11-05T08:45:05.352Z,-27.9
2022-11-05T08:47:06.333Z,-27.9
2022-11-05T08:49:08.229Z,-27.8
2022-11-05T08:51:09.614Z,-28
2022-11-05T08:55:12.492Z,-28.4
2022-11-05T08:57:13.977Z,-28.4
2022-11-05T09:01:17.430Z,-28.3
2022-11-05T09:05:20.306Z,-28.5
2022-11-05T09:07:21.994Z,-28.4
2022-11-05T09:11:37.725Z,-28.3
2022-11-05T09:13:26.440Z,-28.4
2022-11-05T09:15:27.522Z,-28.4
2022-11-05T09:17:28.586Z,-28.5
2022-11-05T09:19:29.719Z,-28.7
2022-11-05T09:21:30.983Z,-28.5
2022-11-05T09:23:32.159Z,-28.3
2022-11-05T09:25:33.970Z,-28.2
2022-11-05T09:27:35.378Z,-28.3
2022-11-05T09:29:36.639Z,-28.3
2022-11-05T09:31:37.686Z,-28.4
2022-11-05T09:33:38.805Z,-28.4
2022-11-05T09:35:40.503Z,-28.4
2022-11-05T09:37:42.084Z,-28.2
2022-11-05T09:39:44.011Z,-28.4
2022-11-05T09:41:45.878Z,-28
2022-11-05T09:43:47.496Z,-28.2
2022-11-05T09:45:49.380Z,-27.8
2022-11-05T09:47:50.780Z,-27.5
2022-11-05T09:49:51.707Z,-26.7
2022-11-05T09:53:54.607Z,-24.7
2022-11-05T09:55:56.210Z,-25.4
2022-11-05T09:57:57.313Z,-20.8
2022-11-05T09:59:59.013Z,-20.9
2022-11-05T10:06:03.942Z,-3.3
2022-11-05T10:10:06.803Z,7
2022-11-05T10:12:07.728Z,8.39
2022-11-05T10:14:09.152Z,11.9
2022-11-05T10:16:10.351Z,13.9
2022-11-05T10:18:11.969Z,19.29
2022-11-05T10:20:13.008Z,24.9
2022-11-05T10:22:14.791Z,33.8
2022-11-05T10:24:16.163Z,40.9
2022-11-05T10:26:25.894Z,36.7
2022-11-05T10:28:19.642Z,44.8
2022-11-05T10:30:21.176Z,47
2022-11-05T10:32:22.970Z,47.5
2022-11-05T10:34:24.159Z,48.1
2022-11-05T10:36:25.513Z,45.3
2022-11-05T10:38:27.381Z,48.4
2022-11-05T10:40:28.385Z,49.6
2022-11-05T10:42:30.123Z,55.2
2022-11-05T10:44:31.970Z,49.5
2022-11-05T10:46:32.763Z,54
2022-11-05T10:48:36.045Z,57
2022-11-05T10:50:35.503Z,69.9
2022-11-05T10:52:36.615Z,79.5
2022-11-05T10:54:38.274Z,79.5
2022-11-05T10:56:40.318Z,78.6
2022-11-05T10:58:41.566Z,78.19
2022-11-05T11:04:44.911Z,76.9
2022-11-05T11:06:46.397Z,76.3
2022-11-05T11:08:47.918Z,75.8
2022-11-05T11:10:48.809Z,75.3
2022-11-05T11:12:50.533Z,5.3
2022-11-05T11:14:51.967Z,2.8
2022-11-05T11:18:55.042Z,5.9
2022-11-05T11:20:56.887Z,4.8
2022-11-05T11:22:58.268Z,5.5
2022-11-05T11:24:59.500Z,-0.4
2022-11-05T11:31:02.823Z,-10.5
2022-11-05T11:33:04.431Z,-11.1
2022-11-05T11:35:05.561Z,-13.5
2022-11-05T11:37:06.636Z,-14.8
2022-11-05T11:39:07.538Z,-16.6
2022-11-05T11:41:09.302Z,-19.9
2022-11-05T11:43:10.438Z,-27.5
2022-11-05T11:45:11.810Z,-28.4
2022-11-05T11:47:13.706Z,-28.2
2022-11-05T11:49:15.454Z,-28.2
2022-11-05T11:51:16.671Z,-28.2
2022-11-05T11:53:18.385Z,-28.4
2022-11-05T11:55:19.301Z,-28.4
2022-11-05T11:57:20.451Z,-28.4
2022-11-05T12:03:24.554Z,-28.1
2022-11-05T12:05:25.687Z,-28.3
2022-11-05T12:07:26.982Z,-27.9
2022-11-05T12:09:28.018Z,-28.2
2022-11-05T12:11:29.432Z,-28.4
2022-11-05T12:13:30.353Z,-28.6
2022-11-05T12:17:33.098Z,-16.6
2022-11-05T12:19:34.473Z,-11.4
2022-11-05T12:21:51.801Z,-9.1
2022-11-05T12:23:37.962Z,-5.9
2022-11-05T12:29:41.959Z,-1.8
2022-11-05T12:31:43.438Z,19.9
2022-11-05T12:33:45.467Z,37.8
2022-11-05T12:35:48.948Z,25.2
2022-11-05T12:37:47.789Z,15.6
2022-11-05T12:39:49.215Z,7.9
2022-11-05T12:41:50.764Z,3.4
2022-11-05T12:43:52.161Z,3.5
2022-11-05T12:45:54.066Z,8.5
2022-11-05T12:47:55.780Z,-0.2
2022-11-05T12:49:57.402Z,-6.8
2022-11-05T12:51:58.644Z,-8.39
2022-11-05T12:53:59.690Z,-5.6
2022-11-05T12:56:01.126Z,0.2
2022-11-05T12:58:02.649Z,9.7
2022-11-05T13:00:04.236Z,21.5
2022-11-05T13:02:06.031Z,18.2
2022-11-05T13:04:07.769Z,16
2022-11-05T13:06:09.390Z,17.6
2022-11-05T13:08:10.994Z,13.3
2022-11-05T13:10:12.795Z,10.9
2022-11-05T13:12:13.717Z,9.5
2022-11-05T13:14:14.669Z,9.6
2022-11-05T13:16:15.788Z,-0.8
2022-11-05T13:18:17.501Z,-0.7
2022-11-05T13:20:18.431Z,1.8
2022-11-05T13:22:19.728Z,-3.6
2022-11-05T13:28:24.716Z,-4
2022-11-05T13:30:25.977Z,-0.3
2022-11-05T13:32:27.057Z,1.4
2022-11-05T13:34:30.292Z,1.9
2022-11-05T13:36:30.006Z,0.3
2022-11-05T13:38:31.218Z,-1.9
2022-11-05T13:42:33.918Z,-13.2
2022-11-05T13:44:35.342Z,-17.9
2022-11-05T13:46:37.089Z,-22.3
2022-11-05T13:48:38.934Z,-27
2022-11-05T13:52:42.438Z,-28.2
2022-11-05T13:54:43.449Z,-28.1
2022-11-05T13:56:44.446Z,-28.3
2022-11-05T13:58:46.156Z,-28.2
2022-11-05T14:00:47.686Z,-28.5
2022-11-05T14:02:49.611Z,-28.2
2022-11-05T14:04:51.217Z,-28.2
2022-11-05T14:08:54.742Z,-28.3
2022-11-05T14:10:56.618Z,-27.9
2022-11-05T14:12:57.519Z,-28.3
2022-11-05T14:14:58.958Z,-28.3
2022-11-05T14:19:01.243Z,-28
2022-11-05T14:21:02.631Z,-28
2022-11-05T14:23:08.826Z,-28.3
2022-11-05T14:25:05.164Z,-28.5
2022-11-05T14:27:06.956Z,-28.3
2022-11-05T14:29:08.254Z,-28.1
2022-11-05T14:31:09.951Z,-28.3
2022-11-05T14:33:11.301Z,-28.3
2022-11-05T14:37:14.205Z,-28.2
2022-11-05T14:41:16.848Z,-11
2022-11-05T14:43:18.198Z,-9.39
2022-11-05T14:45:19.915Z,-13.3
2022-11-05T14:47:21.497Z,-14.3
2022-11-05T14:51:25.209Z,-16.29
2022-11-05T14:53:26.848Z,-22.7
2022-11-05T14:55:28.078Z,-28.3
2022-11-05T14:57:29.263Z,-28.2
2022-11-05T14:59:31.042Z,-28.4
2022-11-05T15:01:32.901Z,-28.2
2022-11-05T15:03:34.533Z,-28.5
2022-11-05T15:05:35.495Z,-28.4
2022-11-05T15:07:36.783Z,-28.5
2022-11-05T15:09:38.361Z,-28.3
2022-11-05T15:11:39.949Z,-28.4
2022-11-05T15:13:41.421Z,-28.4
2022-11-05T15:15:42.636Z,-28.2
2022-11-05T15:17:44.548Z,-28.2
2022-11-05T15:19:46.057Z,-28.3
2022-11-05T15:23:48.532Z,-28.5
2022-11-05T15:25:53.090Z,-28.3
2022-11-05T15:27:50.920Z,-28
2022-11-05T15:29:51.962Z,-28.3
2022-11-05T15:32:38.505Z,-28.3
2022-11-05T15:34:38.478Z,-28.2
2022-11-05T15:36:39.963Z,-28.3
2022-11-05T15:38:41.170Z,-27.9
2022-11-05T15:40:42.492Z,-28.3
2022-11-05T15:44:45.456Z,-28.6
2022-11-05T15:46:46.698Z,-28.4
2022-11-05T15:48:48.419Z,-28.4
2022-11-05T15:50:49.743Z,-28
2022-11-05T15:52:51.401Z,-28.5
2022-11-05T15:54:53.053Z,-28.2
2022-11-05T15:56:54.667Z,-28.5
2022-11-05T15:58:56.385Z,-28.2
2022-11-05T16:00:57.839Z,-28.3
2022-11-05T16:02:59.426Z,-28.5
2022-11-05T16:07:02.462Z,-28.1
2022-11-05T16:09:03.541Z,-28.3
2022-11-05T16:11:05.142Z,-28.5
2022-11-05T16:13:06.643Z,-28.2
2022-11-05T16:15:08.218Z,-28.3
2022-11-05T16:17:09.541Z,-28.3
2022-11-05T16:19:11.339Z,-28.4
2022-11-05T16:21:12.674Z,-28.3
2022-11-05T16:23:14.557Z,-28.2
2022-11-05T16:29:18.983Z,-28.2
2022-11-05T16:31:20.531Z,-28.5
2022-11-05T16:33:21.745Z,-28.4
2022-11-05T16:35:23.139Z,-28.4
2022-11-05T16:37:24.263Z,-28
2022-11-05T16:39:25.339Z,-28.2
2022-11-05T16:43:27.672Z,-28
2022-11-05T16:45:28.841Z,-28.2
2022-11-05T16:47:30.494Z,-28.2
2022-11-05T16:49:32.378Z,-28.4
2022-11-05T16:55:36.460Z,-28.1
2022-11-05T16:57:37.571Z,-28.3
2022-11-05T16:59:38.936Z,-28.3
2022-11-05T17:01:40.655Z,-28.4
2022-11-05T17:03:41.659Z,-28.5
2022-11-05T17:05:42.917Z,-28.3
2022-11-05T17:09:45.816Z,-28.3
2022-11-05T17:11:47.712Z,-28.5
2022-11-05T17:13:49.310Z,-28.4
2022-11-05T17:15:51.241Z,-28.2
2022-11-05T17:17:52.579Z,-28.5
2022-11-05T17:19:54.447Z,-28.3
2022-11-05T17:21:55.716Z,-28.7
2022-11-05T17:23:57.240Z,-28.5
2022-11-05T17:25:58.278Z,-28.3
2022-11-05T17:28:00.094Z,-28.4
2022-11-05T17:30:01.238Z,-28.1
2022-11-05T17:32:02.467Z,-28.3
2022-11-05T17:34:03.487Z,-28.3
2022-11-05T17:36:04.522Z,-28.3
2022-11-05T17:38:06.421Z,-28.2
2022-11-05T17:42:09.808Z,-28.4
2022-11-05T17:44:11.038Z,-27.9
2022-11-05T17:48:13.309Z,-28.4
2022-11-05T17:54:17.303Z,-28.3
2022-11-05T17:56:24.723Z,-28.5
2022-11-05T17:58:19.982Z,-28.3
2022-11-05T18:00:21.490Z,-28.2
2022-11-05T18:02:23.186Z,-28.3
2022-11-05T18:04:24.431Z,-28
2022-11-05T18:08:27.241Z,-28.3
2022-11-05T18:10:28.371Z,-28.2
2022-11-05T18:12:29.950Z,-28.6
2022-11-05T18:14:31.027Z,-28.3
2022-11-05T18:16:33.865Z,-28.2
2022-11-05T18:18:33.957Z,-28.5
2022-11-05T18:20:35.600Z,-28.4
2022-11-05T18:24:38.955Z,-28.7
2022-11-05T18:26:40.218Z,-28.3
2022-11-05T18:30:42.959Z,-28.2
2022-11-05T18:32:44.783Z,-28.3
2022-11-05T18:34:46.499Z,-28.4
2022-11-05T18:36:50.882Z,-28.4
2022-11-05T18:38:49.193Z,-28
2022-11-05T18:40:50.156Z,-28.4
2022-11-05T18:42:51.284Z,-28.3
2022-11-05T18:44:52.645Z,-28.3
2022-11-05T18:46:58.348Z,-28.2
2022-11-05T18:52:59.265Z,-28.2
2022-11-05T18:55:00.507Z,-28
2022-11-05T18:57:01.689Z,-28.3
2022-11-05T18:59:30.378Z,-28
2022-11-05T19:01:06.541Z,-28.2
2022-11-05T19:03:05.492Z,-28.3
2022-11-05T19:07:08.218Z,-28.3
2022-11-05T19:09:09.680Z,-28.3
2022-11-05T19:11:10.972Z,-28.3
2022-11-05T19:13:12.635Z,-28
2022-11-05T19:19:16.634Z,-28.3
2022-11-05T19:21:17.970Z,-28.3
2022-11-05T19:23:19.588Z,-28.6
2022-11-05T19:25:21.182Z,-28.3
2022-11-05T19:27:22.489Z,-28.3
2022-11-05T19:29:24.408Z,-28.4
2022-11-05T19:31:25.696Z,-28.4
2022-11-05T19:33:26.896Z,-28.3
2022-11-05T19:35:28.152Z,-28.2
2022-11-05T19:37:29.281Z,-28.4
2022-11-05T19:39:31.219Z,-28.3
2022-11-05T19:41:32.215Z,-28.4
2022-11-05T19:43:33.674Z,-28.5
2022-11-05T19:45:44.440Z,-27.9
2022-11-05T19:47:36.380Z,-28.1
2022-11-05T19:51:39.957Z,-28.5
2022-11-05T19:53:40.987Z,-28.3
2022-11-05T19:55:42.585Z,-28.2
2022-11-05T19:57:44.461Z,-28.4
2022-11-05T19:59:45.562Z,-28.4
2022-11-05T20:01:47.368Z,-28.4
2022-11-05T20:05:50.017Z,-28.4
2022-11-05T20:07:52.915Z,-28.4
2022-11-05T20:09:53.214Z,-28.2
2022-11-05T20:11:54.713Z,-28.4
2022-11-05T20:17:58.001Z,-28.2
2022-11-05T20:19:59.250Z,-27.9
2022-11-05T20:22:01.108Z,-28.3
2022-11-05T20:24:02.963Z,-28.2
2022-11-05T20:26:04.323Z,-28.2
2022-11-05T20:28:06.311Z,-28.2
2022-11-05T20:30:07.637Z,-28.2
2022-11-05T20:32:08.655Z,-28
2022-11-05T20:34:10.322Z,-28.1
2022-11-05T20:36:11.386Z,-27.9
2022-11-05T20:38:12.864Z,-28.4
2022-11-05T20:40:14.546Z,-28
2022-11-05T20:42:15.945Z,-28.3
2022-11-05T20:44:17.750Z,-28.3
2022-11-05T20:46:18.795Z,-28.3
2022-11-05T20:48:20.345Z,-28.4
2022-11-05T20:50:22.071Z,-28.4
2022-11-05T20:52:23.151Z,-28.3
2022-11-05T20:54:25.108Z,-28.2
2022-11-05T20:56:26.231Z,-28
2022-11-05T21:00:28.578Z,-28
2022-11-05T21:02:30.589Z,-28.3
2022-11-05T21:04:32.296Z,-28.2
2022-11-05T21:06:33.534Z,-28.4
2022-11-05T21:08:34.532Z,-28.2
2022-11-05T21:10:36.360Z,-28.4
2022-11-05T21:14:39.231Z,-28.2
2022-11-05T21:16:41.109Z,-28.2
2022-11-05T21:18:42.891Z,-28
2022-11-05T21:20:44.904Z,-28.3
2022-11-05T21:22:46.267Z,-28.2
2022-11-05T21:24:47.826Z,-28.3
2022-11-05T21:26:49.074Z,-28.3
2022-11-05T21:28:51.006Z,-28.2
2022-11-05T21:30:52.369Z,-28.3
2022-11-05T21:32:53.997Z,-28.3
2022-11-05T21:36:57.512Z,-28.3
2022-11-05T21:38:59.285Z,-28.3
2022-11-05T21:41:01.280Z,-28.4
2022-11-05T21:43:02.992Z,-28.3
2022-11-05T21:45:04.708Z,-28.3
2022-11-05T21:47:05.706Z,-28.3
2022-11-05T21:49:07.289Z,-28.3
2022-11-05T21:51:08.499Z,-28.2
2022-11-05T21:53:09.647Z,-28.3
2022-11-05T21:59:13.611Z,-28.2
2022-11-05T22:01:14.951Z,-28.2
2022-11-05T22:03:16.558Z,-28.4
2022-11-05T22:05:18.517Z,-28.3
2022-11-05T22:07:20.141Z,-28.4
2022-11-05T22:09:22.040Z,-28.2
2022-11-05T22:11:23.610Z,-28.5
2022-11-05T22:13:24.973Z,-28.4
2022-11-05T22:15:26.292Z,-28
2022-11-05T22:17:27.672Z,-28.3
2022-11-05T22:20:12.635Z,-28.4
2022-11-05T22:22:14.334Z,-28.2
2022-11-05T22:24:16.005Z,-28.4
2022-11-05T22:26:17.330Z,-28.4
2022-11-05T22:28:18.712Z,-28.5
2022-11-05T22:30:19.830Z,-28.3
2022-11-05T22:34:23.674Z,-28.2
2022-11-05T22:36:25.622Z,-28.4
2022-11-05T22:38:27.008Z,-28.4
2022-11-05T22:40:28.779Z,-28.2
2022-11-05T22:42:30.706Z,-28.4
2022-11-05T22:44:32.357Z,-28.3
2022-11-05T22:46:34.090Z,-28.2
2022-11-05T22:50:37.051Z,-28.4
2022-11-05T22:52:38.428Z,-28.2
2022-11-05T22:54:39.860Z,-28.2
2022-11-05T22:56:41.758Z,-28.3
2022-11-05T23:02:46.483Z,-28.3
2022-11-05T23:06:48.847Z,-28.3
2022-11-05T23:08:50.854Z,-28.4
2022-11-05T23:10:52.600Z,-28.2
2022-11-05T23:12:54.472Z,-28.1
2022-11-05T23:14:56.162Z,-28.4
2022-11-05T23:16:58.086Z,-28.2
2022-11-05T23:18:59.296Z,-28.4
2022-11-05T23:21:00.514Z,-28
2022-11-05T23:23:01.729Z,-28.4
2022-11-05T23:25:02.837Z,-28
2022-11-05T23:27:03.962Z,-28.4
2022-11-05T23:29:05.358Z,-28.1
2022-11-05T23:31:06.497Z,-28.3
2022-11-05T23:33:07.780Z,-28
2022-11-05T23:35:09.174Z,-28.4
2022-11-05T23:37:10.413Z,-28.3
2022-11-05T23:39:11.613Z,-28.4
2022-11-05T23:41:13.291Z,-28.4
2022-11-05T23:43:14.732Z,-28.3
2022-11-05T23:45:16.104Z,-28.3
2022-11-05T23:49:18.701Z,-28.4
2022-11-05T23:51:20.163Z,-28.4
2022-11-05T23:53:21.992Z,-28.3
2022-11-05T23:55:23.416Z,-28.4
